createdAt,value
2017-08-18T00:00:34.742Z,58.18
2017-08-18T00:01:36.577Z,58.18
2017-08-18T00:02:38.463Z,58.28
2017-08-18T00:03:40.352Z,58.73
2017-08-18T00:04:42.237Z,58.25
2017-08-18T00:05:56.401Z,59.02
2017-08-18T00:06:58.282Z,58.83
2017-08-18T00:08:00.168Z,58.64
2017-08-18T00:09:02.061Z,58.93
2017-08-18T00:10:03.897Z,58.83
2017-08-18T00:11:05.721Z,58.83
2017-08-18T00:12:07.607Z,59.12
2017-08-18T00:13:09.493Z,59.22
2017-08-18T00:14:11.383Z,59.22
2017-08-18T00:15:25.542Z,58.93
2017-08-18T00:16:27.438Z,59.12
2017-08-18T00:17:29.325Z,59.12
2017-08-18T00:18:31.222Z,59.22
2017-08-18T00:19:33.050Z,59.51
2017-08-18T00:20:34.884Z,59.51
2017-08-18T00:21:36.768Z,60.09
2017-08-18T00:22:38.666Z,59.80
2017-08-18T00:23:40.551Z,60.18
2017-08-18T00:24:54.722Z,60.18
2017-08-18T00:25:56.617Z,60.09
2017-08-18T00:26:58.503Z,60.28
2017-08-18T00:28:00.398Z,60.18
2017-08-18T00:29:02.221Z,60.76
2017-08-18T00:30:04.046Z,60.76
2017-08-18T00:31:05.932Z,60.67
2017-08-18T00:32:07.819Z,61.05
2017-08-18T00:33:09.721Z,61.25
2017-08-18T00:34:23.884Z,61.34
2017-08-18T00:35:25.765Z,61.05
2017-08-18T00:36:27.661Z,61.25
2017-08-18T00:37:29.545Z,61.34
2017-08-18T00:38:31.371Z,61.63
2017-08-18T00:39:33.195Z,61.51
2017-08-18T00:40:35.082Z,61.44
2017-08-18T00:41:36.980Z,61.80
2017-08-18T00:42:38.877Z,62.08
2017-08-18T00:43:53.035Z,61.92
2017-08-18T00:44:54.930Z,61.89
2017-08-18T00:45:56.828Z,62.28
2017-08-18T00:46:58.715Z,62.66
2017-08-18T00:48:00.549Z,62.57
2017-08-18T00:49:02.383Z,62.66
2017-08-18T00:50:04.272Z,62.95
2017-08-18T00:51:06.122Z,62.66
2017-08-18T00:52:07.939Z,62.86
2017-08-18T00:53:22.103Z,63.05
2017-08-18T00:54:23.986Z,62.76
2017-08-18T00:55:25.873Z,62.66
2017-08-18T00:56:27.758Z,62.86
2017-08-18T00:57:29.584Z,63.24
2017-08-18T00:58:31.402Z,63.05
2017-08-18T00:59:33.293Z,63.15
2017-08-18T01:00:35.180Z,62.86
2017-08-18T01:01:37.064Z,63.15
2017-08-18T01:02:51.234Z,63.63
2017-08-18T01:03:53.122Z,64.01
2017-08-18T01:04:55.010Z,63.98
2017-08-18T01:05:56.897Z,64.56
2017-08-18T01:06:58.723Z,64.69
2017-08-18T01:08:00.555Z,64.59
2017-08-18T01:09:02.453Z,64.89
2017-08-18T01:10:04.343Z,64.76
2017-08-18T01:11:06.230Z,65.05
2017-08-18T01:12:20.400Z,65.08
2017-08-18T01:13:22.296Z,65.08
2017-08-18T01:14:24.191Z,65.62
2017-08-18T01:15:26.077Z,65.24
2017-08-18T01:16:27.901Z,65.66
2017-08-18T01:17:29.735Z,65.91
2017-08-18T01:18:31.622Z,66.05
2017-08-18T01:19:33.519Z,65.91
2017-08-18T01:20:35.403Z,66.20
2017-08-18T01:21:49.572Z,66.40
2017-08-18T01:22:51.468Z,66.49
2017-08-18T01:23:53.363Z,66.59
2017-08-18T01:24:55.246Z,66.97
2017-08-18T01:25:57.071Z,66.78
2017-08-18T01:26:58.895Z,67.17
2017-08-18T01:28:00.780Z,67.07
2017-08-18T01:29:02.667Z,67.36
2017-08-18T01:30:04.561Z,67.46
2017-08-18T01:31:18.716Z,67.65
2017-08-18T01:32:20.600Z,67.36
2017-08-18T01:33:22.495Z,68.04
2017-08-18T01:34:24.390Z,67.75
2017-08-18T01:35:26.214Z,67.85
2017-08-18T01:36:28.037Z,68.13
2017-08-18T01:37:29.925Z,68.13
2017-08-18T01:38:31.809Z,68.62
2017-08-18T01:39:34.671Z,68.33
2017-08-18T01:40:48.834Z,68.71
2017-08-18T01:41:50.717Z,68.43
2017-08-18T01:42:52.617Z,68.71
2017-08-18T01:43:54.500Z,68.71
2017-08-18T01:44:56.328Z,69.29
2017-08-18T01:45:58.149Z,69.29
2017-08-18T01:47:00.036Z,69.20
2017-08-18T01:48:01.922Z,69.78
2017-08-18T01:49:03.812Z,69.78
2017-08-18T01:50:17.975Z,69.39
2017-08-18T01:51:19.871Z,69.87
2017-08-18T01:52:21.770Z,69.97
2017-08-18T01:53:23.666Z,69.87
2017-08-18T01:54:25.491Z,69.68
2017-08-18T01:55:27.317Z,69.97
2017-08-18T01:56:29.203Z,69.87
2017-08-18T01:57:31.102Z,69.97
2017-08-18T01:58:32.991Z,70.26
2017-08-18T01:59:47.153Z,70.26
2017-08-18T02:00:49.037Z,70.26
2017-08-18T02:01:50.928Z,70.06
2017-08-18T02:02:52.816Z,70.32
2017-08-18T02:03:54.639Z,70.94
2017-08-18T02:04:56.475Z,70.74
2017-08-18T02:05:58.365Z,70.90
2017-08-18T02:07:00.249Z,70.74
2017-08-18T02:08:02.138Z,71.00
2017-08-18T02:09:16.300Z,71.09
2017-08-18T02:10:18.199Z,71.00
2017-08-18T02:11:20.088Z,71.09
2017-08-18T02:12:21.977Z,70.90
2017-08-18T02:13:23.801Z,71.38
2017-08-18T02:14:25.627Z,71.48
2017-08-18T02:15:27.524Z,71.19
2017-08-18T02:16:29.421Z,71.96
2017-08-18T02:17:31.310Z,71.96
2017-08-18T02:18:45.472Z,71.96
2017-08-18T02:19:47.371Z,72.15
2017-08-18T02:20:49.260Z,71.96
2017-08-18T02:21:51.146Z,72.54
2017-08-18T02:22:52.982Z,72.25
2017-08-18T02:23:54.810Z,72.25
2017-08-18T02:24:56.702Z,72.63
2017-08-18T02:25:58.589Z,72.44
2017-08-18T02:27:00.481Z,72.63
2017-08-18T02:28:14.693Z,73.02
2017-08-18T02:29:16.582Z,72.83
2017-08-18T02:30:18.478Z,73.08
2017-08-18T02:31:20.357Z,72.89
2017-08-18T02:32:22.193Z,72.99
2017-08-18T02:33:24.026Z,72.69
2017-08-18T02:34:25.908Z,73.37
2017-08-18T02:35:27.796Z,73.47
2017-08-18T02:36:29.686Z,73.37
2017-08-18T02:37:43.851Z,73.57
2017-08-18T02:38:45.737Z,73.18
2017-08-18T02:39:47.640Z,73.37
2017-08-18T02:40:49.624Z,73.57
2017-08-18T02:41:51.451Z,73.85
2017-08-18T02:42:53.275Z,73.85
2017-08-18T02:43:55.164Z,73.95
2017-08-18T02:44:57.054Z,73.85
2017-08-18T02:45:58.942Z,73.47
2017-08-18T02:47:13.116Z,73.75
2017-08-18T02:48:15.002Z,73.95
2017-08-18T02:49:16.893Z,73.95
2017-08-18T02:50:18.780Z,74.05
2017-08-18T02:51:20.604Z,73.47
2017-08-18T02:52:22.428Z,73.85
2017-08-18T02:53:24.253Z,73.60
2017-08-18T02:54:26.078Z,73.95
2017-08-18T02:55:27.906Z,73.89
2017-08-18T02:56:42.068Z,73.89
2017-08-18T02:57:43.954Z,73.79
2017-08-18T02:58:45.853Z,73.89
2017-08-18T02:59:47.743Z,74.27
2017-08-18T03:00:49.576Z,74.37
2017-08-18T03:01:51.413Z,74.14
2017-08-18T03:02:53.303Z,74.24
2017-08-18T03:03:55.201Z,74.62
2017-08-18T03:04:57.091Z,74.43
2017-08-18T03:06:11.255Z,74.24
2017-08-18T03:07:13.143Z,74.62
2017-08-18T03:08:15.034Z,74.43
2017-08-18T03:09:16.918Z,75.01
2017-08-18T03:10:18.751Z,74.52
2017-08-18T03:11:20.576Z,75.30
2017-08-18T03:12:22.466Z,74.62
2017-08-18T03:13:24.355Z,75.10
2017-08-18T03:14:26.242Z,75.30
2017-08-18T03:15:40.403Z,75.10
2017-08-18T03:16:42.299Z,75.49
2017-08-18T03:17:44.181Z,75.68
2017-08-18T03:18:46.070Z,75.40
2017-08-18T03:19:47.895Z,75.49
2017-08-18T03:20:49.719Z,75.40
2017-08-18T03:21:51.618Z,75.49
2017-08-18T03:22:53.507Z,75.78
2017-08-18T03:23:55.396Z,75.97
2017-08-18T03:25:09.594Z,76.17
2017-08-18T03:26:11.492Z,76.07
2017-08-18T03:27:13.379Z,76.07
2017-08-18T03:28:15.265Z,76.17
2017-08-18T03:29:17.101Z,76.55
2017-08-18T03:30:18.929Z,76.55
2017-08-18T03:31:20.817Z,76.45
2017-08-18T03:32:22.706Z,76.42
2017-08-18T03:33:24.596Z,76.23
2017-08-18T03:34:38.760Z,76.32
2017-08-18T03:35:40.646Z,76.80
2017-08-18T03:36:42.547Z,76.71
2017-08-18T03:37:44.434Z,76.42
2017-08-18T03:38:46.255Z,76.42
2017-08-18T03:39:48.085Z,77.28
2017-08-18T03:40:49.989Z,77.00
2017-08-18T03:41:51.883Z,76.90
2017-08-18T03:42:53.769Z,77.48
2017-08-18T03:44:07.981Z,77.48
2017-08-18T03:45:09.868Z,77.19
2017-08-18T03:46:11.759Z,77.58
2017-08-18T03:47:13.646Z,77.86
2017-08-18T03:48:15.484Z,77.86
2017-08-18T03:49:17.311Z,77.76
2017-08-18T03:50:19.204Z,77.86
2017-08-18T03:51:21.091Z,77.48
2017-08-18T03:52:22.982Z,77.28
2017-08-18T03:53:37.158Z,77.38
2017-08-18T03:54:39.047Z,77.58
2017-08-18T03:55:40.949Z,77.28
2017-08-18T03:56:42.840Z,77.19
2017-08-18T03:57:44.666Z,77.58
2017-08-18T03:58:46.492Z,77.86
2017-08-18T03:59:48.370Z,78.06
2017-08-18T04:00:50.294Z,78.25
2017-08-18T04:01:52.185Z,78.06
2017-08-18T04:03:06.351Z,77.86
2017-08-18T04:04:08.240Z,77.96
2017-08-18T04:05:10.134Z,77.96
2017-08-18T04:06:12.026Z,78.25
2017-08-18T04:07:13.854Z,78.34
2017-08-18T04:08:15.685Z,78.44
2017-08-18T04:09:17.577Z,78.06
2017-08-18T04:10:19.477Z,77.86
2017-08-18T04:11:21.371Z,78.06
2017-08-18T04:12:35.538Z,78.25
2017-08-18T04:13:37.428Z,77.86
2017-08-18T04:14:39.332Z,78.34
2017-08-18T04:15:41.229Z,78.34
2017-08-18T04:16:43.052Z,78.44
2017-08-18T04:17:44.880Z,78.06
2017-08-18T04:18:46.773Z,78.44
2017-08-18T04:19:48.665Z,78.44
2017-08-18T04:20:50.559Z,78.44
2017-08-18T04:22:04.724Z,78.34
2017-08-18T04:23:06.630Z,78.34
2017-08-18T04:24:08.511Z,78.63
2017-08-18T04:25:10.400Z,78.34
2017-08-18T04:26:12.229Z,78.44
2017-08-18T04:27:14.062Z,78.44
2017-08-18T04:28:15.956Z,78.34
2017-08-18T04:29:17.855Z,78.25
2017-08-18T04:30:19.760Z,78.54
2017-08-18T04:31:33.975Z,78.25
2017-08-18T04:32:35.867Z,78.34
2017-08-18T04:33:37.761Z,78.34
2017-08-18T04:34:39.677Z,78.54
2017-08-18T04:35:41.500Z,78.54
2017-08-18T04:36:43.334Z,78.54
2017-08-18T04:37:45.227Z,78.34
2017-08-18T04:38:47.128Z,78.15
2017-08-18T04:39:49.024Z,78.06
2017-08-18T04:41:03.202Z,77.96
2017-08-18T04:42:05.094Z,78.00
2017-08-18T04:43:06.987Z,77.61
2017-08-18T04:44:08.878Z,77.13
2017-08-18T04:45:10.706Z,77.33
2017-08-18T04:46:12.536Z,77.42
2017-08-18T04:47:14.428Z,77.42
2017-08-18T04:48:16.331Z,77.13
2017-08-18T04:49:18.228Z,77.33
2017-08-18T04:50:32.392Z,77.13
2017-08-18T04:51:34.292Z,76.65
2017-08-18T04:52:36.212Z,76.68
2017-08-18T04:53:38.119Z,76.40
2017-08-18T04:54:39.950Z,76.30
2017-08-18T04:55:41.779Z,76.68
2017-08-18T04:56:43.672Z,76.30
2017-08-18T04:57:45.563Z,75.47
2017-08-18T04:58:47.459Z,74.99
2017-08-18T05:00:01.611Z,75.18
2017-08-18T05:01:03.435Z,74.69
2017-08-18T05:02:05.274Z,74.41
2017-08-18T05:03:07.178Z,74.51
2017-08-18T05:04:09.081Z,74.54
2017-08-18T05:05:10.952Z,74.54
2017-08-18T05:06:12.783Z,74.41
2017-08-18T05:07:14.610Z,74.31
2017-08-18T05:08:16.504Z,74.64
2017-08-18T05:09:30.735Z,73.67
2017-08-18T05:10:32.626Z,73.19
2017-08-18T05:11:34.533Z,72.52
2017-08-18T05:12:36.430Z,72.74
2017-08-18T05:13:38.258Z,72.64
2017-08-18T05:14:40.092Z,72.64
2017-08-18T05:15:41.986Z,72.36
2017-08-18T05:16:43.881Z,72.36
2017-08-18T05:17:45.774Z,72.36
2017-08-18T05:18:59.991Z,72.84
2017-08-18T05:20:01.889Z,72.45
2017-08-18T05:21:03.782Z,73.03
2017-08-18T05:22:05.685Z,73.13
2017-08-18T05:23:07.524Z,72.64
2017-08-18T05:24:09.350Z,72.64
2017-08-18T05:25:11.245Z,72.55
2017-08-18T05:26:13.141Z,72.55
2017-08-18T05:27:15.038Z,72.84
2017-08-18T05:28:29.206Z,72.94
2017-08-18T05:29:31.097Z,73.03
2017-08-18T05:30:33.004Z,73.61
2017-08-18T05:31:34.899Z,73.52
2017-08-18T05:32:36.730Z,73.52
2017-08-18T05:33:38.561Z,73.71
2017-08-18T05:34:40.459Z,73.94
2017-08-18T05:35:42.360Z,73.90
2017-08-18T05:36:44.255Z,73.90
2017-08-18T05:37:58.423Z,73.32
2017-08-18T05:39:00.317Z,73.03
2017-08-18T05:40:02.216Z,72.94
2017-08-18T05:41:04.113Z,72.64
2017-08-18T05:42:05.945Z,72.64
2017-08-18T05:43:07.776Z,72.97
2017-08-18T05:44:09.673Z,71.52
2017-08-18T05:45:11.569Z,71.23
2017-08-18T05:46:13.464Z,71.04
2017-08-18T05:47:27.637Z,70.30
2017-08-18T05:48:29.529Z,70.78
2017-08-18T05:49:31.437Z,69.72
2017-08-18T05:50:33.331Z,69.14
2017-08-18T05:51:35.161Z,68.75
2017-08-18T05:52:36.992Z,68.27
2017-08-18T05:53:38.888Z,67.79
2017-08-18T05:54:40.783Z,67.72
2017-08-18T05:55:42.677Z,67.24
2017-08-18T05:56:56.846Z,66.66
2017-08-18T05:57:58.738Z,66.85
2017-08-18T05:59:00.632Z,66.66
2017-08-18T06:00:02.526Z,66.47
2017-08-18T06:01:04.357Z,66.27
2017-08-18T06:02:06.189Z,66.27
2017-08-18T06:03:08.083Z,66.17
2017-08-18T06:04:09.976Z,65.98
2017-08-18T06:05:11.873Z,66.08
2017-08-18T06:06:26.041Z,65.40
2017-08-18T06:07:27.932Z,65.20
2017-08-18T06:08:29.825Z,65.11
2017-08-18T06:09:31.718Z,64.92
2017-08-18T06:10:33.552Z,64.72
2017-08-18T06:11:35.381Z,64.53
2017-08-18T06:12:37.275Z,64.66
2017-08-18T06:13:39.166Z,64.07
2017-08-18T06:14:41.062Z,64.07
2017-08-18T06:15:55.230Z,63.98
2017-08-18T06:16:57.120Z,63.79
2017-08-18T06:17:59.014Z,63.69
2017-08-18T06:19:00.906Z,64.07
2017-08-18T06:20:02.736Z,64.07
2017-08-18T06:21:04.578Z,63.31
2017-08-18T06:22:06.467Z,63.01
2017-08-18T06:23:08.359Z,63.40
2017-08-18T06:24:10.254Z,63.01
2017-08-18T06:25:24.423Z,63.11
2017-08-18T06:26:26.315Z,63.04
2017-08-18T06:27:28.211Z,63.24
2017-08-18T06:28:30.101Z,63.34
2017-08-18T06:29:31.944Z,63.53
2017-08-18T06:30:33.776Z,63.24
2017-08-18T06:31:35.671Z,63.14
2017-08-18T06:32:37.563Z,63.34
2017-08-18T06:33:39.461Z,63.49
2017-08-18T06:34:53.629Z,63.11
2017-08-18T06:35:55.520Z,62.72
2017-08-18T06:36:57.416Z,63.34
2017-08-18T06:37:59.308Z,63.01
2017-08-18T06:39:01.139Z,63.31
2017-08-18T06:40:02.972Z,63.24
2017-08-18T06:41:04.866Z,62.92
2017-08-18T06:42:06.758Z,63.04
2017-08-18T06:43:08.657Z,63.14
2017-08-18T06:44:22.828Z,62.95
2017-08-18T06:45:24.720Z,62.43
2017-08-18T06:46:26.615Z,62.56
2017-08-18T06:47:28.508Z,62.85
2017-08-18T06:48:30.338Z,62.75
2017-08-18T06:49:32.171Z,62.56
2017-08-18T06:50:34.065Z,62.07
2017-08-18T06:51:35.968Z,61.98
2017-08-18T06:52:37.865Z,62.07
2017-08-18T06:53:52.036Z,62.37
2017-08-18T06:54:53.930Z,62.37
2017-08-18T06:55:55.822Z,62.37
2017-08-18T06:56:57.714Z,62.07
2017-08-18T06:57:59.548Z,62.75
2017-08-18T06:59:01.382Z,62.07
2017-08-18T07:00:03.281Z,62.17
2017-08-18T07:01:05.175Z,62.20
2017-08-18T07:02:07.076Z,62.75
2017-08-18T07:03:21.240Z,62.49
2017-08-18T07:04:23.132Z,62.75
2017-08-18T07:05:25.040Z,62.98
2017-08-18T07:06:26.935Z,62.79
2017-08-18T07:07:28.766Z,62.40
2017-08-18T07:08:30.599Z,62.79
2017-08-18T07:09:32.496Z,62.49
2017-08-18T07:10:34.397Z,62.59
2017-08-18T07:11:36.293Z,62.88
2017-08-18T07:12:50.474Z,62.79
2017-08-18T07:13:52.365Z,62.88
2017-08-18T07:14:54.263Z,63.07
2017-08-18T07:15:56.157Z,62.79
2017-08-18T07:16:57.987Z,63.07
2017-08-18T07:17:59.819Z,62.98
2017-08-18T07:19:01.717Z,63.17
2017-08-18T07:20:03.612Z,62.69
2017-08-18T07:21:05.508Z,62.79
2017-08-18T07:22:19.678Z,62.49
2017-08-18T07:23:21.572Z,63.17
2017-08-18T07:24:23.482Z,62.30
2017-08-18T07:25:25.376Z,62.49
2017-08-18T07:26:27.208Z,62.79
2017-08-18T07:27:29.040Z,62.59
2017-08-18T07:28:30.938Z,63.17
2017-08-18T07:29:32.832Z,63.07
2017-08-18T07:30:34.728Z,63.07
2017-08-18T07:31:48.898Z,63.30
2017-08-18T07:32:50.797Z,63.88
2017-08-18T07:33:52.691Z,63.98
2017-08-18T07:34:54.587Z,64.17
2017-08-18T07:35:56.418Z,63.40
2017-08-18T07:36:58.250Z,63.10
2017-08-18T07:38:00.156Z,63.20
2017-08-18T07:39:02.042Z,62.91
2017-08-18T07:40:03.938Z,63.20
2017-08-18T07:41:18.106Z,62.62
2017-08-18T07:42:20.002Z,62.62
2017-08-18T07:43:21.905Z,61.94
2017-08-18T07:44:23.799Z,62.43
2017-08-18T07:45:25.631Z,62.23
2017-08-18T07:46:27.463Z,62.13
2017-08-18T07:47:29.359Z,62.33
2017-08-18T07:48:31.253Z,62.52
2017-08-18T07:49:33.149Z,62.62
2017-08-18T07:50:47.318Z,63.10
2017-08-18T07:51:49.213Z,62.43
2017-08-18T07:52:51.122Z,62.72
2017-08-18T07:53:53.027Z,63.10
2017-08-18T07:54:54.867Z,62.72
2017-08-18T07:55:56.710Z,62.91
2017-08-18T07:56:58.608Z,62.91
2017-08-18T07:58:00.503Z,62.62
2017-08-18T07:59:02.401Z,62.91
2017-08-18T08:00:16.569Z,62.13
2017-08-18T08:01:18.464Z,63.01
2017-08-18T08:02:20.361Z,62.75
2017-08-18T08:03:22.256Z,62.75
2017-08-18T08:04:24.090Z,62.95
2017-08-18T08:05:25.919Z,62.65
2017-08-18T08:06:27.818Z,62.26
2017-08-18T08:07:29.711Z,62.65
2017-08-18T08:08:31.610Z,62.46
2017-08-18T08:09:45.781Z,62.07
2017-08-18T08:10:47.701Z,62.07
2017-08-18T08:11:49.572Z,62.16
2017-08-18T08:12:51.467Z,62.19
2017-08-18T08:13:53.297Z,61.88
2017-08-18T08:14:55.130Z,62.19
2017-08-18T08:15:57.033Z,62.68
2017-08-18T08:16:58.924Z,62.59
2017-08-18T08:18:00.821Z,62.78
2017-08-18T08:19:15.041Z,63.17
2017-08-18T08:20:16.936Z,62.88
2017-08-18T08:21:18.833Z,62.29
2017-08-18T08:22:20.739Z,62.32
2017-08-18T08:23:22.573Z,62.13
2017-08-18T08:24:24.406Z,62.04
2017-08-18T08:25:26.302Z,62.23
2017-08-18T08:26:28.200Z,61.45
2017-08-18T08:27:30.102Z,61.87
2017-08-18T08:28:44.274Z,61.58
2017-08-18T08:29:46.167Z,61.00
2017-08-18T08:30:48.074Z,60.80
2017-08-18T08:31:49.979Z,60.80
2017-08-18T08:32:51.813Z,60.71
2017-08-18T08:33:53.646Z,60.64
2017-08-18T08:34:55.544Z,61.02
2017-08-18T08:35:57.441Z,60.22
2017-08-18T08:36:59.338Z,60.35
2017-08-18T08:38:13.510Z,60.25
2017-08-18T08:39:15.412Z,60.54
2017-08-18T08:40:17.324Z,60.35
2017-08-18T08:41:19.220Z,60.25
2017-08-18T08:42:21.053Z,60.54
2017-08-18T08:43:22.886Z,60.54
2017-08-18T08:44:24.794Z,60.44
2017-08-18T08:45:26.687Z,60.25
2017-08-18T08:46:28.585Z,59.76
2017-08-18T08:47:42.757Z,59.76
2017-08-18T08:48:44.651Z,59.57
2017-08-18T08:49:46.550Z,59.86
2017-08-18T08:50:48.446Z,59.57
2017-08-18T08:51:50.277Z,59.57
2017-08-18T08:52:52.113Z,59.67
2017-08-18T08:53:54.033Z,59.67
2017-08-18T08:54:55.908Z,59.76
2017-08-18T08:55:57.805Z,59.47
2017-08-18T08:57:11.987Z,59.38
2017-08-18T08:58:13.882Z,59.47
2017-08-18T08:59:15.779Z,59.74
2017-08-18T09:00:17.675Z,59.57
2017-08-18T09:01:19.519Z,59.47
2017-08-18T09:02:21.353Z,59.38
2017-08-18T09:03:23.252Z,59.38
2017-08-18T09:04:25.148Z,59.18
2017-08-18T09:05:27.006Z,58.98
2017-08-18T09:06:41.176Z,59.18
2017-08-18T09:07:43.070Z,59.08
2017-08-18T09:08:44.995Z,59.38
2017-08-18T09:09:46.936Z,59.18
2017-08-18T09:10:48.817Z,58.89
2017-08-18T09:11:50.708Z,58.50
2017-08-18T09:12:52.639Z,58.43
2017-08-18T09:13:54.561Z,58.53
2017-08-18T09:14:56.458Z,58.62
2017-08-18T09:16:10.642Z,57.95
2017-08-18T09:17:12.534Z,58.04
2017-08-18T09:18:14.443Z,58.07
2017-08-18T09:19:16.338Z,58.07
2017-08-18T09:20:18.172Z,57.56
2017-08-18T09:21:20.039Z,58.07
2017-08-18T09:22:21.911Z,57.97
2017-08-18T09:23:23.819Z,57.59
2017-08-18T09:24:25.720Z,58.07
2017-08-18T09:25:39.966Z,57.97
2017-08-18T09:26:41.836Z,58.17
2017-08-18T09:27:43.746Z,58.07
2017-08-18T09:28:45.641Z,58.07
2017-08-18T09:29:47.483Z,57.59
2017-08-18T09:30:49.317Z,57.49
2017-08-18T09:31:51.221Z,57.59
2017-08-18T09:32:53.113Z,57.39
2017-08-18T09:33:55.011Z,57.49
2017-08-18T09:35:09.183Z,57.39
2017-08-18T09:36:11.078Z,57.61
2017-08-18T09:37:12.974Z,57.42
2017-08-18T09:38:14.870Z,57.22
2017-08-18T09:39:16.702Z,57.12
2017-08-18T09:40:18.548Z,56.93
2017-08-18T09:41:20.444Z,57.12
2017-08-18T09:42:22.355Z,56.54
2017-08-18T09:43:24.249Z,56.45
2017-08-18T09:44:38.431Z,55.99
2017-08-18T09:45:40.325Z,56.47
2017-08-18T09:46:42.236Z,56.47
2017-08-18T09:47:44.145Z,56.47
2017-08-18T09:48:45.977Z,55.89
2017-08-18T09:49:47.816Z,55.99
2017-08-18T09:50:49.710Z,55.79
2017-08-18T09:51:51.616Z,55.60
2017-08-18T09:52:53.514Z,55.69
2017-08-18T09:54:07.688Z,55.60
2017-08-18T09:55:09.583Z,55.82
2017-08-18T09:56:11.481Z,55.13
2017-08-18T09:57:13.388Z,55.62
2017-08-18T09:58:15.224Z,55.04
2017-08-18T09:59:17.060Z,54.46
2017-08-18T10:00:18.958Z,54.75
2017-08-18T10:01:20.855Z,54.65
2017-08-18T10:02:22.751Z,54.68
2017-08-18T10:03:36.929Z,53.99
2017-08-18T10:04:38.825Z,54.48
2017-08-18T10:05:40.730Z,54.19
2017-08-18T10:06:42.623Z,53.99
2017-08-18T10:07:44.459Z,53.80
2017-08-18T10:08:46.298Z,53.83
2017-08-18T10:09:48.201Z,53.92
2017-08-18T10:10:50.095Z,53.80
2017-08-18T10:11:51.995Z,54.11
2017-08-18T10:13:06.172Z,53.34
2017-08-18T10:14:08.065Z,53.63
2017-08-18T10:15:09.976Z,53.34
2017-08-18T10:16:11.871Z,53.44
2017-08-18T10:17:13.707Z,53.05
2017-08-18T10:18:15.547Z,53.05
2017-08-18T10:19:17.446Z,53.27
2017-08-18T10:20:19.349Z,53.34
2017-08-18T10:21:21.241Z,53.36
2017-08-18T10:22:35.414Z,52.97
2017-08-18T10:23:37.311Z,53.27
2017-08-18T10:24:39.209Z,53.17
2017-08-18T10:25:41.107Z,53.17
2017-08-18T10:26:42.953Z,53.46
2017-08-18T10:27:44.810Z,52.87
2017-08-18T10:28:46.711Z,52.78
2017-08-18T10:29:48.652Z,53.46
2017-08-18T10:30:50.564Z,52.87
2017-08-18T10:32:04.757Z,53.27
2017-08-18T10:33:06.654Z,53.24
2017-08-18T10:34:08.568Z,53.44
2017-08-18T10:35:10.462Z,53.44
2017-08-18T10:36:12.311Z,53.73
2017-08-18T10:37:14.131Z,54.02
2017-08-18T10:38:16.042Z,54.41
2017-08-18T10:39:17.951Z,54.41
2017-08-18T10:40:19.850Z,54.21
2017-08-18T10:41:34.023Z,54.50
2017-08-18T10:42:35.921Z,54.87
2017-08-18T10:43:37.831Z,55.16
2017-08-18T10:44:39.728Z,55.65
2017-08-18T10:45:41.570Z,55.26
2017-08-18T10:46:43.396Z,55.26
2017-08-18T10:47:45.307Z,55.36
2017-08-18T10:48:47.210Z,55.26
2017-08-18T10:49:49.109Z,55.75
2017-08-18T10:51:03.284Z,55.65
2017-08-18T10:52:05.194Z,55.65
2017-08-18T10:53:07.090Z,55.91
2017-08-18T10:54:08.998Z,55.94
2017-08-18T10:55:10.834Z,56.21
2017-08-18T10:56:12.669Z,56.14
2017-08-18T10:57:14.565Z,56.33
2017-08-18T10:58:16.478Z,55.85
2017-08-18T10:59:18.374Z,55.91
2017-08-18T11:00:32.544Z,56.01
2017-08-18T11:01:34.441Z,56.14
2017-08-18T11:02:36.344Z,55.75
2017-08-18T11:03:38.238Z,56.23
2017-08-18T11:04:40.073Z,55.75
2017-08-18T11:05:41.911Z,55.46
2017-08-18T11:06:43.810Z,55.36
2017-08-18T11:07:45.666Z,55.46
2017-08-18T11:08:47.508Z,55.94
2017-08-18T11:10:01.675Z,55.36
2017-08-18T11:11:03.571Z,54.50
2017-08-18T11:12:05.467Z,54.70
2017-08-18T11:13:07.364Z,53.92
2017-08-18T11:14:09.200Z,54.34
2017-08-18T11:15:11.035Z,54.53
2017-08-18T11:16:12.934Z,53.95
2017-08-18T11:17:15.029Z,53.36
2017-08-18T11:18:16.929Z,53.46
2017-08-18T11:19:31.106Z,52.97
2017-08-18T11:20:32.998Z,53.29
2017-08-18T11:21:34.908Z,52.90
2017-08-18T11:22:36.818Z,52.61
2017-08-18T11:23:38.654Z,52.15
2017-08-18T11:24:40.489Z,52.34
2017-08-18T11:25:42.388Z,51.66
2017-08-18T11:26:44.287Z,51.76
2017-08-18T11:27:46.187Z,51.39
2017-08-18T11:29:00.363Z,51.00
2017-08-18T11:30:02.259Z,50.51
2017-08-18T11:31:04.166Z,50.61
2017-08-18T11:32:06.077Z,50.24
2017-08-18T11:33:07.899Z,50.05
2017-08-18T11:34:09.738Z,49.46
2017-08-18T11:35:11.638Z,49.85
2017-08-18T11:36:13.537Z,49.75
2017-08-18T11:37:15.443Z,49.29
2017-08-18T11:38:29.619Z,49.09
2017-08-18T11:39:31.524Z,49.29
2017-08-18T11:40:33.423Z,49.19
2017-08-18T11:41:35.329Z,48.80
2017-08-18T11:42:37.167Z,48.60
2017-08-18T11:43:39.006Z,48.43
2017-08-18T11:44:40.905Z,48.63
2017-08-18T11:45:42.804Z,48.60
2017-08-18T11:46:44.703Z,48.31
2017-08-18T11:47:58.887Z,48.41
2017-08-18T11:49:00.784Z,48.50
2017-08-18T11:50:02.680Z,47.82
2017-08-18T11:51:04.574Z,48.14
2017-08-18T11:52:06.420Z,47.85
2017-08-18T11:53:08.253Z,47.36
2017-08-18T11:54:10.150Z,47.65
2017-08-18T11:55:12.061Z,47.45
2017-08-18T11:56:13.967Z,47.65
2017-08-18T11:57:28.139Z,47.65
2017-08-18T11:58:30.037Z,47.94
2017-08-18T11:59:31.937Z,48.02
2017-08-18T12:00:33.834Z,48.02
2017-08-18T12:01:35.682Z,48.21
2017-08-18T12:02:37.523Z,47.72
2017-08-18T12:03:39.426Z,47.65
2017-08-18T12:04:41.324Z,47.72
2017-08-18T12:05:43.221Z,47.45
2017-08-18T12:06:57.400Z,46.97
2017-08-18T12:07:59.296Z,47.16
2017-08-18T12:09:01.195Z,47.06
2017-08-18T12:10:03.089Z,47.36
2017-08-18T12:11:04.927Z,47.53
2017-08-18T12:12:06.764Z,47.82
2017-08-18T12:13:08.662Z,47.82
2017-08-18T12:14:10.568Z,47.63
2017-08-18T12:15:12.470Z,47.33
2017-08-18T12:16:26.644Z,46.94
2017-08-18T12:17:28.535Z,46.94
2017-08-18T12:18:30.442Z,47.21
2017-08-18T12:19:32.341Z,47.14
2017-08-18T12:20:34.182Z,47.80
2017-08-18T12:21:36.021Z,48.09
2017-08-18T12:22:37.920Z,48.09
2017-08-18T12:23:39.816Z,48.19
2017-08-18T12:24:41.715Z,48.09
2017-08-18T12:25:55.939Z,48.02
2017-08-18T12:26:57.835Z,48.11
2017-08-18T12:27:59.735Z,47.50
2017-08-18T12:29:01.632Z,47.72
2017-08-18T12:30:03.471Z,47.70
2017-08-18T12:31:05.311Z,47.21
2017-08-18T12:32:07.210Z,47.60
2017-08-18T12:33:09.106Z,47.50
2017-08-18T12:34:11.004Z,47.31
2017-08-18T12:35:25.182Z,47.02
2017-08-18T12:36:27.077Z,47.11
2017-08-18T12:37:28.987Z,46.92
2017-08-18T12:38:30.896Z,46.92
2017-08-18T12:39:32.734Z,47.11
2017-08-18T12:40:34.584Z,47.02
2017-08-18T12:41:36.483Z,46.55
2017-08-18T12:42:38.378Z,46.65
2017-08-18T12:43:40.277Z,46.55
2017-08-18T12:44:54.454Z,46.65
2017-08-18T12:45:56.349Z,46.65
2017-08-18T12:46:58.247Z,46.36
2017-08-18T12:48:00.142Z,46.16
2017-08-18T12:49:01.992Z,45.69
2017-08-18T12:50:03.831Z,45.40
2017-08-18T12:51:05.732Z,45.69
2017-08-18T12:52:07.631Z,45.59
2017-08-18T12:53:09.529Z,45.79
2017-08-18T12:54:23.707Z,45.69
2017-08-18T12:55:25.603Z,45.42
2017-08-18T12:56:27.505Z,45.03
2017-08-18T12:57:29.413Z,44.73
2017-08-18T12:58:31.238Z,44.73
2017-08-18T12:59:33.078Z,44.46
2017-08-18T13:00:34.979Z,44.64
2017-08-18T13:01:36.877Z,44.37
2017-08-18T13:02:38.779Z,44.73
2017-08-18T13:03:52.957Z,44.73
2017-08-18T13:04:54.863Z,44.44
2017-08-18T13:05:56.778Z,44.34
2017-08-18T13:06:58.676Z,44.07
2017-08-18T13:08:00.515Z,44.07
2017-08-18T13:09:02.354Z,44.07
2017-08-18T13:10:04.254Z,43.68
2017-08-18T13:11:06.152Z,43.98
2017-08-18T13:12:08.050Z,43.77
2017-08-18T13:13:22.228Z,44.17
2017-08-18T13:14:24.125Z,44.15
2017-08-18T13:15:26.029Z,44.46
2017-08-18T13:16:27.929Z,44.34
2017-08-18T13:17:29.773Z,44.44
2017-08-18T13:18:31.616Z,44.44
2017-08-18T13:19:33.530Z,44.37
2017-08-18T13:20:35.428Z,44.15
2017-08-18T13:21:37.322Z,43.98
2017-08-18T13:22:51.496Z,43.66
2017-08-18T13:23:53.396Z,44.17
2017-08-18T13:24:55.291Z,43.77
2017-08-18T13:25:57.184Z,44.05
2017-08-18T13:26:59.041Z,44.27
2017-08-18T13:28:00.872Z,44.54
2017-08-18T13:29:02.775Z,44.83
2017-08-18T13:30:04.671Z,45.34
2017-08-18T13:31:06.571Z,44.95
2017-08-18T13:32:20.749Z,44.95
2017-08-18T13:33:22.648Z,44.68
2017-08-18T13:34:24.559Z,43.99